Time;durP1;ratioP1;P1;durP2;ratioP2;P2;SDS_P1;SDS_P2;PMS_P1;PMS_P2;Temp;Humidity;BMP_temperature;BMP_pressure;BME280_temperature;BME280_humidity;BME280_pressure;Samples;Min_cycle;Max_cycle;Signal;HPM_P1;HPM_P2
2022/04/01 00:01:32;;;;;;;4.65;2.28;;;;;;;;;;4957950;28;88492;-71
2022/04/01 00:03:59;;;;;;;2.80;2.30;;;;;;;;;;4952774;28;89133;-72
2022/04/01 00:06:25;;;;;;;4.30;2.85;;;;;;;;;;4937876;28;88722;-71
2022/04/01 00:08:51;;;;;;;4.68;2.30;;;;;;;;;;4949716;28;89653;-71
2022/04/01 00:11:18;;;;;;;5.22;2.53;;;;;;;;;;4957954;28;88608;-72
2022/04/01 00:13:44;;;;;;;4.22;2.78;;;;;;;;;;4958043;28;89680;-71
2022/04/01 00:16:10;;;;;;;3.70;3.40;;;;;;;;;;4958487;28;88851;-71
2022/04/01 00:18:37;;;;;;;3.42;2.70;;;;;;;;;;4957573;28;88062;-71
2022/04/01 00:21:03;;;;;;;2.50;2.30;;;;;;;;;;4957361;28;89014;-71
2022/04/01 00:23:29;;;;;;;4.53;2.28;;;;;;;;;;4958265;28;87199;-71
2022/04/01 00:25:56;;;;;;;4.10;2.67;;;;;;;;;;4957916;28;89440;-71
2022/04/01 00:28:22;;;;;;;4.85;3.10;;;;;;;;;;4960661;28;89558;-71
2022/04/01 00:30:48;;;;;;;3.67;2.40;;;;;;;;;;4956838;28;89238;-71
2022/04/01 00:33:17;;;;;;;2.80;2.40;;;;;;;;;;4957645;28;89438;-71
2022/04/01 00:35:43;;;;;;;3.35;2.72;;;;;;;;;;4956909;28;88686;-70
2022/04/01 00:38:09;;;;;;;2.75;2.55;;;;;;;;;;4957474;28;88857;-71
2022/04/01 00:40:37;;;;;;;2.70;2.50;;;;;;;;;;4957788;28;90040;-71
2022/04/01 00:43:03;;;;;;;2.75;2.55;;;;;;;;;;4957844;28;88844;-72
2022/04/01 00:45:29;;;;;;;2.90;2.70;;;;;;;;;;4958194;28;88888;-71
2022/04/01 00:48:01;;;;;;;2.90;2.63;;;;;;;;;;4956524;28;88602;-71
2022/04/01 00:50:30;;;;;;;8.23;2.78;;;;;;;;;;4960083;28;90048;-72
2022/04/01 00:52:56;;;;;;;3.00;2.75;;;;;;;;;;4957504;28;88597;-71
2022/04/01 00:55:23;;;;;;;2.95;2.72;;;;;;;;;;4956947;28;90766;-71
2022/04/01 00:57:49;;;;;;;2.95;2.75;;;;;;;;;;4957598;28;88311;-71
2022/04/01 01:00:17;;;;;;;5.10;3.00;;;;;;;;;;4955732;28;89144;-71
2022/04/01 01:02:44;;;;;;;2.97;2.55;;;;;;;;;;4956269;28;90141;-71
2022/04/01 01:05:10;;;;;;;3.85;3.10;;;;;;;;;;4955097;28;88011;-71
2022/04/01 01:07:39;;;;;;;3.13;2.83;;;;;;;;;;4938051;28;89435;-71
2022/04/01 01:10:05;;;;;;;2.83;2.53;;;;;;;;;;4954939;28;88819;-71
2022/04/01 01:12:31;;;;;;;2.70;2.50;;;;;;;;;;4961016;28;88935;-71
2022/04/01 01:15:06;;;;;;;5.55;2.53;;;;;;;;;;4957319;28;89009;-71
2022/04/01 01:17:32;;;;;;;2.60;2.40;;;;;;;;;;4955681;28;88092;-71
2022/04/01 01:19:58;;;;;;;2.85;2.60;;;;;;;;;;4956005;28;88760;-71
2022/04/01 01:22:24;;;;;;;4.63;2.90;;;;;;;;;;4956957;28;89044;-71
2022/04/01 01:24:51;;;;;;;3.10;2.40;;;;;;;;;;4951981;28;89821;-71
2022/04/01 01:27:17;;;;;;;3.72;2.72;;;;;;;;;;4969782;28;88839;-71
2022/04/01 01:29:45;;;;;;;5.43;2.83;;;;;;;;;;4956449;28;88522;-70
2022/04/01 01:32:16;;;;;;;3.47;2.30;;;;;;;;;;4958525;28;88086;-72
2022/04/01 01:34:42;;;;;;;2.90;2.53;;;;;;;;;;4963282;28;88878;-73
2022/04/01 01:37:11;;;;;;;2.97;2.60;;;;;;;;;;4961461;28;88975;-71
2022/04/01 01:39:38;;;;;;;3.53;2.83;;;;;;;;;;4959763;28;88889;-71
2022/04/01 01:42:06;;;;;;;8.57;2.90;;;;;;;;;;4960478;28;88985;-71
2022/04/01 01:44:33;;;;;;;3.03;2.75;;;;;;;;;;4959022;28;90217;-71
2022/04/01 01:46:59;;;;;;;3.50;3.20;;;;;;;;;;4959846;28;89201;-71
2022/04/01 01:49:25;;;;;;;6.18;2.78;;;;;;;;;;4959381;28;88914;-71
2022/04/01 01:54:43;;;;;;;3.20;2.83;;;;;;;;;;4959416;28;88479;-71
2022/04/01 01:57:10;;;;;;;3.03;2.83;;;;;;;;;;4962930;28;87988;-71
2022/04/01 01:59:36;;;;;;;2.97;2.65;;;;;;;;;;4960117;28;89666;-72
2022/04/01 02:02:05;;;;;;;3.13;2.83;;;;;;;;;;4959909;28;88269;-71
2022/04/01 02:04:32;;;;;;;5.13;2.70;;;;;;;;;;4960024;28;88584;-72
2022/04/01 02:06:59;;;;;;;2.97;2.70;;;;;;;;;;4958537;28;91056;-71
2022/04/01 02:09:25;;;;;;;2.80;2.50;;;;;;;;;;4959409;28;89604;-72
2022/04/01 02:11:52;;;;;;;2.90;2.55;;;;;;;;;;4959993;28;88004;-71
2022/04/01 02:14:18;;;;;;;2.58;2.38;;;;;;;;;;4959957;28;89633;-71
2022/04/01 02:16:44;;;;;;;4.45;2.75;;;;;;;;;;4960117;28;89237;-71
2022/04/01 02:19:11;;;;;;;2.33;2.13;;;;;;;;;;4962552;28;88894;-72
2022/04/01 02:21:37;;;;;;;2.50;2.30;;;;;;;;;;4959753;28;88994;-71
2022/04/01 02:24:06;;;;;;;3.80;2.42;;;;;;;;;;4956155;28;88657;-71
2022/04/01 02:26:34;;;;;;;3.20;2.60;;;;;;;;;;4959730;28;90326;-71
2022/04/01 02:29:03;;;;;;;2.95;2.75;;;;;;;;;;4959229;28;88945;-71
2022/04/01 02:31:30;;;;;;;3.40;2.50;;;;;;;;;;4947972;28;87974;-70
2022/04/01 02:33:57;;;;;;;2.50;2.30;;;;;;;;;;4959131;28;89934;-71
2022/04/01 02:36:23;;;;;;;2.50;2.30;;;;;;;;;;4959366;28;88830;-71
2022/04/01 02:38:50;;;;;;;3.15;2.60;;;;;;;;;;4962249;28;88016;-71
2022/04/01 02:41:16;;;;;;;3.25;2.58;;;;;;;;;;4959651;28;88819;-71
2022/04/01 02:43:43;;;;;;;5.25;2.47;;;;;;;;;;4958924;28;88619;-71
2022/04/01 02:46:10;;;;;;;3.20;2.20;;;;;;;;;;4959904;28;89674;-71
2022/04/01 02:48:36;;;;;;;3.00;2.70;;;;;;;;;;4958186;28;89055;-70
2022/04/01 02:51:03;;;;;;;2.97;2.67;;;;;;;;;;4959146;28;89042;-71
2022/04/01 02:53:29;;;;;;;3.60;2.17;;;;;;;;;;4959102;28;89065;-71
2022/04/01 02:55:56;;;;;;;3.33;2.80;;;;;;;;;;4959427;28;89056;-71
2022/04/01 02:58:22;;;;;;;2.67;2.47;;;;;;;;;;4958077;28;88825;-71
2022/04/01 03:00:48;;;;;;;6.10;2.33;;;;;;;;;;4961379;28;89344;-71
2022/04/01 03:03:14;;;;;;;2.22;2.13;;;;;;;;;;4958772;28;88017;-71
2022/04/01 03:05:44;;;;;;;3.55;2.30;;;;;;;;;;4957860;28;88798;-71
2022/04/01 03:08:11;;;;;;;2.60;2.38;;;;;;;;;;4958978;28;89078;-70
2022/04/01 03:10:39;;;;;;;6.05;2.50;;;;;;;;;;4958107;28;88059;-71
2022/04/01 03:13:08;;;;;;;2.60;2.40;;;;;;;;;;4958884;28;89487;-72
2022/04/01 03:15:37;;;;;;;4.30;2.40;;;;;;;;;;4959790;28;88504;-71
2022/04/01 03:18:04;;;;;;;3.08;2.30;;;;;;;;;;4958699;28;89132;-71
2022/04/01 03:20:33;;;;;;;2.47;2.08;;;;;;;;;;4958257;28;89299;-71
2022/04/01 03:22:59;;;;;;;2.55;2.35;;;;;;;;;;4961029;28;90949;-71
2022/04/01 03:25:32;;;;;;;3.88;2.40;;;;;;;;;;4950915;28;89689;-72
2022/04/01 03:28:00;;;;;;;3.60;2.00;;;;;;;;;;4953580;28;88245;-71
2022/04/01 03:30:27;;;;;;;3.67;2.47;;;;;;;;;;4948305;28;88039;-71
2022/04/01 03:32:54;;;;;;;6.65;2.40;;;;;;;;;;4955026;28;89802;-72
2022/04/01 03:35:21;;;;;;;2.53;2.33;;;;;;;;;;4958836;28;89667;-71
2022/04/01 03:37:49;;;;;;;3.40;2.47;;;;;;;;;;4958151;28;88101;-71
2022/04/01 03:40:15;;;;;;;3.10;2.20;;;;;;;;;;4948051;28;89411;-71
2022/04/01 03:42:46;;;;;;;2.95;2.55;;;;;;;;;;4958144;28;89030;-71
2022/04/01 03:45:13;;;;;;;2.95;2.40;;;;;;;;;;4961506;28;88113;-71
2022/04/01 03:47:59;;;;;;;2.95;2.38;;;;;;;;;;4958049;28;89862;-71
2022/04/01 03:50:32;;;;;;;2.80;2.50;;;;;;;;;;4954432;28;88810;-71
2022/04/01 03:53:04;;;;;;;2.78;2.58;;;;;;;;;;4958344;28;89609;-71
2022/04/01 03:55:31;;;;;;;2.30;2.08;;;;;;;;;;4955543;28;89116;-72
2022/04/01 03:58:01;;;;;;;4.63;2.42;;;;;;;;;;4957615;28;88003;-71
2022/04/01 04:00:29;;;;;;;5.05;2.30;;;;;;;;;;4957702;28;89627;-71
2022/04/01 04:02:56;;;;;;;2.53;2.33;;;;;;;;;;4957834;28;88683;-71
2022/04/01 04:05:23;;;;;;;3.17;2.28;;;;;;;;;;4958623;28;89026;-71
2022/04/01 04:07:50;;;;;;;3.08;2.70;;;;;;;;;;4960909;28;89213;-70
2022/04/01 04:10:17;;;;;;;2.83;2.40;;;;;;;;;;4958202;28;88196;-71
2022/04/01 04:12:43;;;;;;;3.55;2.33;;;;;;;;;;4957654;28;88766;-71
2022/04/01 04:15:10;;;;;;;2.75;2.42;;;;;;;;;;4958140;28;88745;-71
2022/04/01 04:17:36;;;;;;;4.35;2.83;;;;;;;;;;4957563;28;88344;-71
2022/04/01 04:20:10;;;;;;;3.42;2.58;;;;;;;;;;4957509;28;88809;-71
2022/04/01 04:22:45;;;;;;;2.97;2.67;;;;;;;;;;4957676;28;88802;-70
2022/04/01 04:25:14;;;;;;;5.35;2.60;;;;;;;;;;4957279;28;88259;-71
2022/04/01 04:27:49;;;;;;;5.80;3.10;;;;;;;;;;4950839;28;88758;-71
2022/04/01 04:30:16;;;;;;;8.65;2.72;;;;;;;;;;4955646;28;88108;-72
2022/04/01 04:32:44;;;;;;;2.63;2.42;;;;;;;;;;4958104;28;88322;-71
2022/04/01 04:35:11;;;;;;;6.93;2.78;;;;;;;;;;4951305;28;89260;-71
2022/04/01 04:37:47;;;;;;;5.65;2.92;;;;;;;;;;4957309;28;88720;-71
2022/04/01 04:40:17;;;;;;;3.70;2.78;;;;;;;;;;4938529;28;89432;-72
2022/04/01 04:42:48;;;;;;;3.08;2.45;;;;;;;;;;4953669;28;88970;-71
2022/04/01 04:45:14;;;;;;;;;;;;;;;;;;4958184;28;88111;-71
2022/04/01 04:47:41;;;;;;;2.55;2.35;;;;;;;;;;4958811;28;118970;-71
2022/04/01 04:50:08;;;;;;;2.55;2.35;;;;;;;;;;4959795;28;89121;-71
2022/04/01 04:52:34;;;;;;;2.75;2.55;;;;;;;;;;4957449;28;87902;-71
2022/04/01 04:55:02;;;;;;;3.13;2.45;;;;;;;;;;4957839;28;89144;-71
2022/04/01 04:57:28;;;;;;;3.53;2.60;;;;;;;;;;4956306;28;88722;-71
2022/04/01 04:59:56;;;;;;;4.93;2.70;;;;;;;;;;4957610;28;89759;-71
2022/04/01 05:02:42;;;;;;;3.35;2.50;;;;;;;;;;4956091;28;90032;-71
2022/04/01 05:05:15;;;;;;;3.22;2.72;;;;;;;;;;4956601;28;88848;-71
2022/04/01 05:07:57;;;;;;;3.58;2.50;;;;;;;;;;4960037;28;92514;-71
2022/04/01 05:10:26;;;;;;;3.25;2.53;;;;;;;;;;4960097;28;88811;-70
2022/04/01 05:13:07;;;;;;;2.90;2.60;;;;;;;;;;4962001;28;88406;-71
2022/04/01 05:15:36;;;;;;;4.20;2.78;;;;;;;;;;4960578;28;88686;-72
2022/04/01 05:18:12;;;;;;;4.05;2.97;;;;;;;;;;4960507;28;88097;-71
2022/04/01 05:20:55;;;;;;;3.45;2.47;;;;;;;;;;4960779;28;89652;-71
2022/04/01 05:23:40;;;;;;;10.43;2.70;;;;;;;;;;4958897;28;89102;-71
2022/04/01 05:26:12;;;;;;;8.00;2.58;;;;;;;;;;4960156;28;88137;-71
2022/04/01 05:28:40;;;;;;;4.00;2.63;;;;;;;;;;4958757;28;89212;-71
2022/04/01 05:31:13;;;;;;;3.53;3.15;;;;;;;;;;4957620;28;88772;-71
2022/04/01 05:34:07;;;;;;;2.67;2.47;;;;;;;;;;4960514;28;89076;-71
2022/04/01 05:36:41;;;;;;;2.72;2.42;;;;;;;;;;4940737;28;89851;-71
2022/04/01 05:39:08;;;;;;;4.35;2.50;;;;;;;;;;4955239;28;87909;-71
2022/04/01 05:41:35;;;;;;;3.25;2.65;;;;;;;;;;4958644;28;88591;-71
2022/04/01 05:44:03;;;;;;;6.32;2.80;;;;;;;;;;4956913;28;94500;-71
2022/04/01 05:46:29;;;;;;;5.00;3.13;;;;;;;;;;4957959;28;91837;-71
2022/04/01 05:48:57;;;;;;;5.47;2.47;;;;;;;;;;4957278;28;94123;-71
2022/04/01 05:51:24;;;;;;;4.63;2.50;;;;;;;;;;4956973;28;93618;-71
2022/04/01 05:53:51;;;;;;;2.92;2.58;;;;;;;;;;4955735;28;94878;-71
2022/04/01 05:56:18;;;;;;;5.32;3.00;;;;;;;;;;4956368;28;95296;-71
2022/04/01 05:58:44;;;;;;;5.07;2.40;;;;;;;;;;4959845;28;93598;-70
2022/04/01 06:01:17;;;;;;;4.70;2.97;;;;;;;;;;4957185;28;93083;-71
2022/04/01 06:03:50;;;;;;;6.28;3.15;;;;;;;;;;4957347;28;94439;-71
2022/04/01 06:06:48;;;;;;;2.75;2.08;;;;;;;;;;4954791;28;92508;-71
2022/04/01 06:09:35;;;;;;;2.67;2.47;;;;;;;;;;4923682;28;93291;-70
2022/04/01 06:12:07;;;;;;;3.75;2.70;;;;;;;;;;4957219;28;93767;-71
2022/04/01 06:14:39;;;;;;;3.00;2.53;;;;;;;;;;4957388;28;92383;-71
2022/04/01 06:17:14;;;;;;;6.22;3.10;;;;;;;;;;4955621;28;93156;-71
2022/04/01 06:19:43;;;;;;;5.00;2.70;;;;;;;;;;4954407;28;95649;-71
2022/04/01 06:22:13;;;;;;;3.45;2.75;;;;;;;;;;4958985;28;92474;-71
2022/04/01 06:24:58;;;;;;;5.28;2.90;;;;;;;;;;4956113;28;94271;-70
2022/04/01 06:27:45;;;;;;;4.60;2.80;;;;;;;;;;4951647;28;92832;-71
2022/04/01 06:30:13;;;;;;;6.75;2.83;;;;;;;;;;4954185;28;92545;-71
2022/04/01 06:32:52;;;;;;;5.82;3.15;;;;;;;;;;4954446;28;93483;-71
2022/04/01 06:35:31;;;;;;;4.30;3.30;;;;;;;;;;4956401;28;92833;-72
2022/04/01 06:37:58;;;;;;;5.72;3.10;;;;;;;;;;4956105;28;93224;-73
2022/04/01 06:40:31;;;;;;;4.35;3.20;;;;;;;;;;4955224;28;92677;-73
2022/04/01 06:42:57;;;;;;;3.55;2.97;;;;;;;;;;4956381;28;92406;-70
2022/04/01 06:45:23;;;;;;;6.80;2.90;;;;;;;;;;4957829;28;94931;-71
2022/04/01 06:47:49;;;;;;;5.07;2.80;;;;;;;;;;4956916;28;92521;-73
2022/04/01 06:50:16;;;;;;;12.07;3.33;;;;;;;;;;4956722;28;92839;-73
2022/04/01 06:52:44;;;;;;;2.83;2.38;;;;;;;;;;4955896;28;94636;-75
2022/04/01 06:55:12;;;;;;;5.93;2.58;;;;;;;;;;4956885;28;92429;-72
2022/04/01 06:57:39;;;;;;;6.03;2.42;;;;;;;;;;4956338;28;93343;-71
2022/04/01 07:00:11;;;;;;;3.50;2.17;;;;;;;;;;4956626;28;93166;-75
2022/04/01 07:02:38;;;;;;;5.13;2.60;;;;;;;;;;4956090;28;92056;-74
2022/04/01 07:05:05;;;;;;;3.00;2.28;;;;;;;;;;4958634;28;93897;-72
2022/04/01 07:07:31;;;;;;;3.90;2.08;;;;;;;;;;4955498;28;94393;-74
2022/04/01 07:09:58;;;;;;;2.30;2.10;;;;;;;;;;4954629;28;95047;-72
2022/04/01 07:12:24;;;;;;;6.13;2.42;;;;;;;;;;4955763;28;93443;-73
2022/04/01 07:14:50;;;;;;;4.28;2.92;;;;;;;;;;4956546;28;92553;-72
2022/04/01 07:17:17;;;;;;;3.92;2.55;;;;;;;;;;4956659;28;94207;-72
2022/04/01 07:19:43;;;;;;;7.78;2.50;;;;;;;;;;4950871;28;94526;-73
2022/04/01 07:22:09;;;;;;;4.43;2.00;;;;;;;;;;4936650;28;92480;-71
2022/04/01 07:24:35;;;;;;;5.00;2.13;;;;;;;;;;4954279;28;93335;-71
2022/04/01 07:27:02;;;;;;;11.50;2.40;;;;;;;;;;4959031;28;91788;-72
2022/04/01 07:29:29;;;;;;;3.15;2.33;;;;;;;;;;4955383;28;93555;-72
2022/04/01 07:34:41;;;;;;;2.30;1.83;;;;;;;;;;4969268;28;95195;-71
2022/04/01 07:37:08;;;;;;;2.78;2.10;;;;;;;;;;4975170;28;95595;-70
2022/04/01 07:39:35;;;;;;;4.30;1.83;;;;;;;;;;4955098;28;93427;-71
2022/04/01 07:42:01;;;;;;;4.18;1.88;;;;;;;;;;4955868;28;92413;-71
2022/04/01 07:44:27;;;;;;;3.30;2.20;;;;;;;;;;4954936;28;93180;-71
2022/04/01 07:46:54;;;;;;;4.07;1.70;;;;;;;;;;4954574;28;93266;-70
2022/04/01 07:49:20;;;;;;;4.60;2.05;;;;;;;;;;4948259;28;92789;-70
2022/04/01 07:52:10;;;;;;;6.22;2.38;;;;;;;;;;4952460;28;95468;-72
2022/04/01 07:54:45;;;;;;;4.40;1.90;;;;;;;;;;4936286;28;92756;-71
2022/04/01 07:57:12;;;;;;;2.35;2.00;;;;;;;;;;4950970;28;94130;-71
2022/04/01 07:59:38;;;;;;;3.47;1.70;;;;;;;;;;4953435;28;96956;-71
2022/04/01 08:02:05;;;;;;;4.00;1.90;;;;;;;;;;4954837;28;92474;-71
2022/04/01 08:04:31;;;;;;;4.00;1.80;;;;;;;;;;4954111;28;93228;-70
2022/04/01 08:07:04;;;;;;;3.22;1.38;;;;;;;;;;4952932;28;93368;-70
2022/04/01 08:09:30;;;;;;;5.07;2.17;;;;;;;;;;4954586;28;92409;-71
2022/04/01 08:11:56;;;;;;;12.98;2.25;;;;;;;;;;4958429;28;93166;-72
2022/04/01 08:14:23;;;;;;;4.70;1.50;;;;;;;;;;4954511;28;92955;-70
2022/04/01 08:16:49;;;;;;;1.83;1.60;;;;;;;;;;4955807;28;91656;-70
2022/04/01 08:19:15;;;;;;;3.95;1.40;;;;;;;;;;4965658;28;93534;-71
2022/04/01 08:21:44;;;;;;;2.42;1.30;;;;;;;;;;4958944;28;92626;-72
2022/04/01 08:24:12;;;;;;;2.72;1.50;;;;;;;;;;4952355;28;94909;-71
2022/04/01 08:26:38;;;;;;;3.40;1.50;;;;;;;;;;4954427;28;94571;-71
2022/04/01 08:29:05;;;;;;;3.42;1.50;;;;;;;;;;4952163;28;92944;-71
2022/04/01 08:31:33;;;;;;;2.25;1.10;;;;;;;;;;4953925;28;94116;-71
2022/04/01 08:33:59;;;;;;;4.50;1.70;;;;;;;;;;4956356;28;94095;-72
2022/04/01 08:36:26;;;;;;;2.25;1.20;;;;;;;;;;4957785;28;93334;-70
2022/04/01 08:38:52;;;;;;;5.55;1.30;;;;;;;;;;4951049;28;92541;-71
2022/04/01 08:41:20;;;;;;;5.88;1.88;;;;;;;;;;4950659;28;91726;-69
2022/04/01 08:43:47;;;;;;;2.45;1.25;;;;;;;;;;4948707;28;92506;-69
2022/04/01 08:46:14;;;;;;;2.60;1.08;;;;;;;;;;4952545;28;92753;-71
2022/04/01 08:48:41;;;;;;;4.72;1.23;;;;;;;;;;4953365;28;95061;-71
2022/04/01 08:51:07;;;;;;;1.98;1.25;;;;;;;;;;4970587;28;95601;-71
2022/04/01 08:53:44;;;;;;;1.77;1.30;;;;;;;;;;4956365;28;93624;-71
2022/04/01 08:56:11;;;;;;;3.33;0.95;;;;;;;;;;4957828;28;92670;-69
2022/04/01 08:58:37;;;;;;;2.80;1.27;;;;;;;;;;4953241;28;94428;-70
2022/04/01 09:01:05;;;;;;;2.63;1.20;;;;;;;;;;4954745;28;92440;-71
2022/04/01 09:03:32;;;;;;;5.45;1.40;;;;;;;;;;4954792;28;94182;-71
2022/04/01 09:06:02;;;;;;;1.98;1.20;;;;;;;;;;4953173;28;93188;-71
2022/04/01 09:08:30;;;;;;;1.30;1.13;;;;;;;;;;4954341;28;92957;-71
2022/04/01 09:10:57;;;;;;;12.52;1.80;;;;;;;;;;4954971;28;94145;-70
2022/04/01 09:13:28;;;;;;;3.28;1.02;;;;;;;;;;4952848;28;96335;-71
2022/04/01 09:15:54;;;;;;;4.65;1.50;;;;;;;;;;4958280;28;92373;-70
2022/04/01 09:18:37;;;;;;;8.82;1.55;;;;;;;;;;4954045;28;93119;-71
2022/04/01 09:21:03;;;;;;;8.57;1.73;;;;;;;;;;4944016;28;92457;-72
2022/04/01 09:23:30;;;;;;;6.18;1.23;;;;;;;;;;4954157;28;93710;-71
2022/04/01 09:25:56;;;;;;;2.05;1.45;;;;;;;;;;4954457;28;93821;-70
2022/04/01 09:28:33;;;;;;;1.85;1.10;;;;;;;;;;4954329;28;92566;-71
2022/04/01 09:31:00;;;;;;;3.08;1.15;;;;;;;;;;4954437;28;91609;-72
2022/04/01 09:33:34;;;;;;;2.95;1.50;;;;;;;;;;4943051;28;93367;-70
2022/04/01 09:36:04;;;;;;;1.85;1.60;;;;;;;;;;4954317;28;92481;-71
2022/04/01 09:38:30;;;;;;;2.40;1.65;;;;;;;;;;4955358;28;94862;-71
2022/04/01 09:40:59;;;;;;;2.83;1.50;;;;;;;;;;4953644;28;92451;-70
2022/04/01 09:43:30;;;;;;;5.53;1.52;;;;;;;;;;4954126;28;93854;-69
2022/04/01 09:45:56;;;;;;;;;;;;;;;;;;4954873;28;93418;-71
2022/04/01 09:48:23;;;;;;;3.45;1.55;;;;;;;;;;4954878;28;118460;-69
2022/04/01 09:50:56;;;;;;;7.13;1.90;;;;;;;;;;4953684;28;94272;-70
2022/04/01 09:53:25;;;;;;;4.43;1.75;;;;;;;;;;4942086;28;93252;-70
2022/04/01 09:55:52;;;;;;;3.80;1.73;;;;;;;;;;4958263;28;91685;-70
2022/04/01 09:58:20;;;;;;;3.30;1.83;;;;;;;;;;4956838;28;92778;-71
2022/04/01 10:00:46;;;;;;;3.33;1.67;;;;;;;;;;4960414;28;94495;-70
2022/04/01 10:03:15;;;;;;;3.65;1.85;;;;;;;;;;4954767;28;94889;-70
2022/04/01 10:05:41;;;;;;;2.08;1.70;;;;;;;;;;4956621;28;93598;-70
2022/04/01 10:08:09;;;;;;;2.38;1.75;;;;;;;;;;4957264;28;92460;-71
2022/04/01 10:10:37;;;;;;;3.70;1.92;;;;;;;;;;4956617;28;93517;-70
2022/04/01 10:13:05;;;;;;;4.50;1.80;;;;;;;;;;4956632;28;93329;-70
2022/04/01 10:15:34;;;;;;;4.30;2.15;;;;;;;;;;4957391;28;92586;-71
2022/04/01 10:18:01;;;;;;;3.58;2.10;;;;;;;;;;4956626;28;93326;-69
2022/04/01 10:20:33;;;;;;;6.25;2.17;;;;;;;;;;4957610;28;93506;-70
2022/04/01 10:23:04;;;;;;;5.65;2.17;;;;;;;;;;4960217;28;92476;-70
2022/04/01 10:25:36;;;;;;;4.00;2.00;;;;;;;;;;4955609;28;93433;-70
2022/04/01 10:28:04;;;;;;;3.90;2.28;;;;;;;;;;4954692;28;95049;-70
2022/04/01 10:30:31;;;;;;;5.18;2.40;;;;;;;;;;4954585;28;95658;-70
2022/04/01 10:32:58;;;;;;;8.80;2.65;;;;;;;;;;4956949;28;92377;-71
2022/04/01 10:35:25;;;;;;;3.95;2.20;;;;;;;;;;4956473;28;93444;-70
2022/04/01 10:37:55;;;;;;;4.30;2.25;;;;;;;;;;4956977;28;94120;-71
2022/04/01 10:40:24;;;;;;;2.40;2.23;;;;;;;;;;4954861;28;94671;-69
2022/04/01 10:42:51;;;;;;;6.35;2.28;;;;;;;;;;4954255;28;92498;-70
2022/04/01 10:45:17;;;;;;;3.80;2.70;;;;;;;;;;4958751;28;93158;-69
2022/04/01 10:53:31;;;;;;;4.70;2.70;;;;;;;;;;4954101;28;96809;-70
2022/04/01 10:56:16;;;;;;;4.82;2.90;;;;;;;;;;4956396;28;92489;-70
2022/04/01 10:58:59;;;;;;;2.65;2.45;;;;;;;;;;4950437;28;92950;-69
2022/04/01 11:01:26;;;;;;;5.82;3.15;;;;;;;;;;4955161;28;93089;-69
2022/04/01 11:03:52;;;;;;;4.72;2.92;;;;;;;;;;4954387;28;92481;-70
2022/04/01 11:06:22;;;;;;;9.07;3.72;;;;;;;;;;4949996;28;93457;-69
2022/04/01 11:08:55;;;;;;;4.13;3.33;;;;;;;;;;4956207;28;92501;-71
2022/04/01 11:11:21;;;;;;;5.47;3.28;;;;;;;;;;4956197;28;93901;-71
2022/04/01 11:14:04;;;;;;;8.10;3.30;;;;;;;;;;4956212;28;93300;-70
2022/04/01 11:16:46;;;;;;;7.07;3.53;;;;;;;;;;4956105;28;92502;-71
2022/04/01 11:19:13;;;;;;;4.38;3.20;;;;;;;;;;4953477;28;94780;-71
2022/04/01 11:21:40;;;;;;;8.25;3.47;;;;;;;;;;4958011;28;93203;-70
2022/04/01 11:24:25;;;;;;;3.30;3.00;;;;;;;;;;4952310;28;92552;-70
2022/04/01 11:26:52;;;;;;;5.65;3.42;;;;;;;;;;4957165;28;92955;-70
2022/04/01 11:29:24;;;;;;;7.30;3.28;;;;;;;;;;4958325;28;93200;-71
2022/04/01 11:32:00;;;;;;;3.53;3.22;;;;;;;;;;4958188;28;93021;-71
2022/04/01 11:34:26;;;;;;;5.38;3.60;;;;;;;;;;4956125;28;94194;-71
2022/04/01 11:36:57;;;;;;;6.25;3.58;;;;;;;;;;4956138;28;91773;-71
2022/04/01 11:39:24;;;;;;;10.32;3.78;;;;;;;;;;4955840;28;92463;-71
2022/04/01 11:41:51;;;;;;;4.50;3.50;;;;;;;;;;4955338;28;93478;-71
2022/04/01 11:44:18;;;;;;;5.25;3.72;;;;;;;;;;4953833;28;96637;-71
2022/04/01 11:46:51;;;;;;;9.02;3.47;;;;;;;;;;4955550;28;95532;-69
2022/04/01 11:49:17;;;;;;;4.85;3.92;;;;;;;;;;4954159;28;93660;-70
2022/04/01 11:51:44;;;;;;;4.60;3.50;;;;;;;;;;4939609;28;92606;-70
2022/04/01 11:54:10;;;;;;;5.22;3.80;;;;;;;;;;4952561;28;93405;-69
2022/04/01 11:56:36;;;;;;;6.00;4.30;;;;;;;;;;4971741;28;92478;-70
2022/04/01 11:59:04;;;;;;;5.95;4.63;;;;;;;;;;4955684;28;94337;-71
2022/04/01 12:01:34;;;;;;;5.40;3.83;;;;;;;;;;4956111;28;92288;-70
2022/04/01 12:04:03;;;;;;;5.43;3.70;;;;;;;;;;4955223;28;92412;-70
2022/04/01 12:09:14;;;;;;;5.63;4.18;;;;;;;;;;4953040;28;96895;-72
2022/04/01 12:11:49;;;;;;;11.75;4.32;;;;;;;;;;4935876;28;92468;-71
2022/04/01 12:14:23;;;;;;;7.50;4.45;;;;;;;;;;4958052;28;93235;-70
2022/04/01 12:16:49;;;;;;;4.43;3.85;;;;;;;;;;4954605;28;92532;-72
2022/04/01 12:19:20;;;;;;;6.80;3.50;;;;;;;;;;4955071;28;93224;-71
2022/04/01 12:21:47;;;;;;;7.35;4.68;;;;;;;;;;4955312;28;94082;-72
2022/04/01 12:24:14;;;;;;;9.98;4.07;;;;;;;;;;4955189;28;92493;-71
2022/04/01 12:26:41;;;;;;;7.63;4.47;;;;;;;;;;4954915;28;93198;-72
2022/04/01 12:29:37;;;;;;;7.40;4.40;;;;;;;;;;4954578;28;93358;-71
2022/04/01 12:32:05;;;;;;;6.35;4.20;;;;;;;;;;4945449;28;92511;-71
2022/04/01 12:34:32;;;;;;;5.10;3.60;;;;;;;;;;4953858;28;94639;-71
2022/04/01 12:37:03;;;;;;;4.53;3.38;;;;;;;;;;4957283;28;94544;-71
2022/04/01 12:39:29;;;;;;;;;;;;;;;;;;4955359;28;93470;-70
2022/04/01 12:42:00;;;;;;;8.70;4.07;;;;;;;;;;4955505;28;124814;-71
2022/04/01 12:44:28;;;;;;;4.82;4.05;;;;;;;;;;4955553;28;92515;-72
2022/04/01 12:46:57;;;;;;;6.00;3.95;;;;;;;;;;4954499;28;92601;-71
2022/04/01 12:49:25;;;;;;;6.55;3.70;;;;;;;;;;4954543;28;94530;-72
2022/04/01 12:51:59;;;;;;;6.82;3.70;;;;;;;;;;4955434;28;91629;-72
2022/04/01 12:54:33;;;;;;;6.55;3.90;;;;;;;;;;4955427;28;92401;-71
2022/04/01 12:57:01;;;;;;;7.50;4.18;;;;;;;;;;4952937;28;93236;-72
2022/04/01 12:59:32;;;;;;;3.60;3.25;;;;;;;;;;4956195;28;95032;-72
2022/04/01 13:01:59;;;;;;;5.32;3.83;;;;;;;;;;4954550;28;93472;-72
2022/04/01 13:04:26;;;;;;;6.05;3.67;;;;;;;;;;4954463;28;92784;-71
2022/04/01 13:07:05;;;;;;;3.92;3.53;;;;;;;;;;4953623;28;93152;-72
2022/04/01 13:09:32;;;;;;;5.72;3.90;;;;;;;;;;4954633;28;92542;-71
2022/04/01 13:11:58;;;;;;;10.70;4.57;;;;;;;;;;4954294;28;92478;-71
2022/04/01 13:14:26;;;;;;;7.72;4.03;;;;;;;;;;4954338;28;93161;-71
2022/04/01 13:16:53;;;;;;;5.35;3.58;;;;;;;;;;4954535;28;92656;-71
2022/04/01 13:19:30;;;;;;;6.47;3.60;;;;;;;;;;4956936;28;92435;-72
2022/04/01 13:21:58;;;;;;;5.70;2.88;;;;;;;;;;4954190;28;93587;-72
2022/04/01 13:24:25;;;;;;;4.43;3.05;;;;;;;;;;4952718;28;94833;-72
2022/04/01 13:26:52;;;;;;;4.32;2.88;;;;;;;;;;4955184;28;95191;-71
2022/04/01 13:29:18;;;;;;;3.25;2.40;;;;;;;;;;4957499;28;92878;-72
2022/04/01 13:31:45;;;;;;;5.03;2.35;;;;;;;;;;4957470;28;94108;-72
2022/04/01 13:34:11;;;;;;;4.90;2.40;;;;;;;;;;4957372;28;94200;-72
2022/04/01 13:36:38;;;;;;;4.57;2.40;;;;;;;;;;4951806;28;93422;-73
2022/04/01 13:39:07;;;;;;;4.63;2.10;;;;;;;;;;4957794;28;92488;-75
2022/04/01 13:41:34;;;;;;;4.50;2.13;;;;;;;;;;4960023;28;93134;-72
2022/04/01 13:44:00;;;;;;;5.90;2.42;;;;;;;;;;4958367;28;92455;-77
2022/04/01 13:46:27;;;;;;;3.85;1.95;;;;;;;;;;4958116;28;93273;-77
2022/04/01 13:48:53;;;;;;;4.65;2.35;;;;;;;;;;4955512;28;95945;-72
2022/04/01 13:51:20;;;;;;;2.63;2.40;;;;;;;;;;4956926;28;92479;-73
2022/04/01 13:53:46;;;;;;;2.75;2.22;;;;;;;;;;4957165;28;94142;-71
2022/04/01 13:56:12;;;;;;;2.83;2.10;;;;;;;;;;4955618;28;93577;-71
2022/04/01 13:58:38;;;;;;;4.10;2.30;;;;;;;;;;4957031;28;92718;-71
2022/04/01 14:01:06;;;;;;;2.30;1.88;;;;;;;;;;4958013;28;93122;-72
2022/04/01 14:03:38;;;;;;;4.43;1.83;;;;;;;;;;4941103;28;93438;-72
2022/04/01 14:06:05;;;;;;;2.15;1.88;;;;;;;;;;4937476;28;93024;-71
2022/04/01 14:08:32;;;;;;;2.47;2.22;;;;;;;;;;4954929;28;93207;-71
2022/04/01 14:10:59;;;;;;;2.97;1.70;;;;;;;;;;4957813;28;92387;-71
2022/04/01 14:13:32;;;;;;;3.53;1.85;;;;;;;;;;4956132;28;94864;-72
2022/04/01 14:16:17;;;;;;;4.57;1.70;;;;;;;;;;4956713;28;94476;-72
2022/04/01 14:18:43;;;;;;;2.85;1.60;;;;;;;;;;4957066;28;92434;-72
2022/04/01 14:21:10;;;;;;;2.38;1.52;;;;;;;;;;4957292;28;93132;-72
2022/04/01 14:23:36;;;;;;;3.55;2.65;;;;;;;;;;4957138;28;94334;-72
2022/04/01 14:26:08;;;;;;;3.97;1.50;;;;;;;;;;4958889;28;92481;-71
2022/04/01 14:28:35;;;;;;;2.13;1.40;;;;;;;;;;4956099;28;93414;-71
2022/04/01 14:31:02;;;;;;;1.60;1.50;;;;;;;;;;4941660;28;91673;-72
2022/04/01 14:33:30;;;;;;;3.63;1.35;;;;;;;;;;4937322;28;93654;-72
2022/04/01 14:35:57;;;;;;;18.70;3.47;;;;;;;;;;4954560;28;93086;-71
2022/04/01 14:38:24;;;;;;;2.13;1.27;;;;;;;;;;4954723;28;94918;-71
2022/04/01 14:41:11;;;;;;;1.52;1.20;;;;;;;;;;4937464;28;96721;-71
2022/04/01 14:43:37;;;;;;;1.55;1.30;;;;;;;;;;4944490;28;93221;-70
2022/04/01 14:46:03;;;;;;;2.63;1.35;;;;;;;;;;4956449;28;92402;-72
2022/04/01 14:48:30;;;;;;;3.72;1.45;;;;;;;;;;4959508;28;92940;-71
2022/04/01 14:50:57;;;;;;;6.20;1.65;;;;;;;;;;4956570;28;92517;-72
2022/04/01 14:53:24;;;;;;;1.10;1.10;;;;;;;;;;4956780;28;93127;-72
2022/04/01 14:55:51;;;;;;;3.10;1.40;;;;;;;;;;4956423;28;93219;-71
2022/04/01 14:58:17;;;;;;;2.10;1.48;;;;;;;;;;4955805;28;92517;-72
2022/04/01 15:00:45;;;;;;;2.20;1.35;;;;;;;;;;4956406;28;93158;-71
2022/04/01 15:03:12;;;;;;;1.20;1.20;;;;;;;;;;4954181;28;95786;-72
2022/04/01 15:05:39;;;;;;;2.25;1.50;;;;;;;;;;4955775;28;92789;-72
2022/04/01 15:08:06;;;;;;;2.85;1.42;;;;;;;;;;4956274;28;92888;-71